To NAV CANADA Home Page Login to a new session Search on AWWS site Feedback and Comments Disclaimer Vers la page française équivalente Tips FAQ What's new on the site To the Forecasts and Observations / NOTAM section To "File a Flight Plan" website Publications and other links Update of the User's profile FIC Telephone Numbers My Weather Data Folder Route Weather Data Regional Weather Data Local Weather Data To the Forecasts and Observations / NOTAM section
Request Generated 02/06/2016 at 11:07:23 UTC . Weather information available at that time is displayed.

METAR/TAF

FORT ST. JOHN/BC    

METAR CYXJ 061100Z 24017G24KT 15SM SCT030 BKN100 03/M01 A2939 RMK
SC3AC4 SLP976=
METAR CYXJ 061000Z 25019G28KT 15SM -SHRA SCT020 BKN080 03/M01 A2935
RMK SC4AC3 SLP964=
METAR CYXJ 060900Z 23013KT 15SM -SHRA SCT040 BKN080 03/M01 A2931 RMK
SC4AC3 SLP948=

TAF AMD CYXJ 060918Z 0609/0619 23015KT WS006/25040KT P6SM FEW020
BKN050 TEMPO 0609/0612 4SM -RASN BKN020 BKN050 PROB30 0609/0610
5SM -FZRA BR BKN020
FM061200 26020G30KT P6SM SCT080 BKN200
BECMG 0612/0614 26025G35KT
RMK NXT FCST BY 061300Z=
Your time UTC time
Weather data provided by Environment Canada and NAV CANADA